createdAt,value
2019-02-08T00:00:47.770Z,100777.51
2019-02-08T00:03:14.875Z,100772.58
2019-02-08T00:05:42.132Z,100770.16
2019-02-08T00:08:09.473Z,100769.93
2019-02-08T00:10:36.937Z,100766.30
2019-02-08T00:13:04.133Z,100763.70
2019-02-08T00:15:31.319Z,100766.90
2019-02-08T00:17:58.695Z,100761.53
2019-02-08T00:20:25.874Z,100761.94
2019-02-08T00:22:53.077Z,100763.81
2019-02-08T00:25:20.207Z,100764.92
2019-02-08T00:27:47.765Z,100766.28
2019-02-08T00:30:17.897Z,100761.58
2019-02-08T00:32:45.148Z,100761.13
2019-02-08T00:35:12.932Z,100774.66
2019-02-08T00:37:40.180Z,100766.58
2019-02-08T00:40:09.568Z,100766.84
2019-02-08T00:42:36.752Z,100775.37
2019-02-08T00:45:04.889Z,100776.55
2019-02-08T00:47:32.286Z,100780.72
2019-02-08T00:49:59.718Z,100782.53
2019-02-08T00:52:27.054Z,100783.13
2019-02-08T00:54:54.116Z,100781.06
2019-02-08T00:57:21.303Z,100779.28
2019-02-08T00:59:48.486Z,100782.72
2019-02-08T01:02:16.119Z,100784.85
2019-02-08T01:04:43.268Z,100779.19
2019-02-08T01:07:10.787Z,100781.89
2019-02-08T01:09:38.017Z,100786.54
2019-02-08T01:12:05.175Z,100800.21
2019-02-08T01:14:32.620Z,100801.70
2019-02-08T01:17:00.088Z,100799.26
2019-02-08T01:19:27.612Z,100809.63
2019-02-08T01:21:54.904Z,100810.98
2019-02-08T01:24:21.966Z,100822.44
2019-02-08T01:26:49.217Z,100820.63
2019-02-08T01:29:16.603Z,100817.13
2019-02-08T01:31:43.715Z,100810.53
2019-02-08T01:34:11.208Z,100813.13
2019-02-08T01:36:38.387Z,100807.14
2019-02-08T01:39:06.886Z,100805.24
2019-02-08T01:41:34.219Z,100809.06
2019-02-08T01:44:01.479Z,100805.28
2019-02-08T01:46:28.632Z,100803.78
2019-02-08T01:48:55.705Z,100795.36
2019-02-08T01:51:22.889Z,100803.41
2019-02-08T01:53:49.966Z,100800.73
2019-02-08T01:56:17.112Z,100800.50
2019-02-08T01:58:44.493Z,100802.80
2019-02-08T02:01:11.759Z,100801.64
2019-02-08T02:03:38.937Z,100796.11
2019-02-08T02:06:06.421Z,100791.95
2019-02-08T02:08:33.709Z,100789.70
2019-02-08T02:11:00.857Z,100799.91
2019-02-08T02:13:28.055Z,100799.35
2019-02-08T02:15:55.191Z,100798.17
2019-02-08T02:18:22.367Z,100799.28
2019-02-08T02:20:49.432Z,100801.12
2019-02-08T02:23:16.678Z,100799.90
2019-02-08T02:25:43.921Z,100798.74
2019-02-08T02:28:11.416Z,100797.73
2019-02-08T02:30:38.563Z,100808.34
2019-02-08T02:33:07.741Z,100817.49
2019-02-08T02:35:34.945Z,100810.66
2019-02-08T02:38:02.189Z,100810.83
2019-02-08T02:40:29.369Z,100811.06
2019-02-08T02:42:56.699Z,100812.05
2019-02-08T02:45:27.789Z,100812.02
2019-02-08T02:47:54.988Z,100814.94
2019-02-08T02:50:22.244Z,100809.78
2019-02-08T02:52:49.421Z,100809.91
2019-02-08T02:55:16.799Z,100810.66
2019-02-08T02:57:43.999Z,100804.85
2019-02-08T03:00:23.458Z,100799.92
2019-02-08T03:02:50.572Z,100805.12
2019-02-08T03:05:17.726Z,100805.30
2019-02-08T03:07:44.942Z,100803.27
2019-02-08T03:10:13.958Z,100801.13
2019-02-08T03:12:41.420Z,100799.69
2019-02-08T03:15:09.952Z,100801.86
2019-02-08T03:17:37.029Z,100803.31
2019-02-08T03:20:05.711Z,100800.20
2019-02-08T03:22:32.805Z,100808.27
2019-02-08T03:24:59.937Z,100808.84
2019-02-08T03:27:27.103Z,100806.97
2019-02-08T03:29:54.252Z,100801.36
2019-02-08T03:32:21.501Z,100809.72
2019-02-08T03:34:48.645Z,100810.85
2019-02-08T03:37:15.840Z,100800.50
2019-02-08T03:39:43.035Z,100803.22
2019-02-08T03:42:10.459Z,100800.42
2019-02-08T03:44:37.950Z,100803.24
2019-02-08T03:47:05.154Z,100802.49
2019-02-08T03:49:32.350Z,100799.64
2019-02-08T03:51:59.503Z,100792.48
2019-02-08T03:54:26.579Z,100803.69
2019-02-08T03:56:53.718Z,100809.17
2019-02-08T03:59:20.865Z,100812.95
2019-02-08T04:01:48.111Z,100796.70
2019-02-08T04:04:15.806Z,100801.41
2019-02-08T04:06:42.955Z,100808.29
2019-02-08T04:09:10.175Z,100805.38
2019-02-08T04:11:37.509Z,100809.03
2019-02-08T04:14:04.784Z,100793.36
2019-02-08T04:16:31.989Z,100793.89
2019-02-08T04:18:59.331Z,100800.50
2019-02-08T04:21:26.551Z,100801.76
2019-02-08T04:23:53.633Z,100801.81
2019-02-08T04:26:20.851Z,100804.09
2019-02-08T04:28:48.063Z,100799.66
2019-02-08T04:31:15.301Z,100792.27
2019-02-08T04:33:42.478Z,100787.70
2019-02-08T04:36:09.829Z,100797.38
2019-02-08T04:38:36.902Z,100802.98
2019-02-08T04:41:04.070Z,100797.04
2019-02-08T04:43:31.310Z,100798.05
2019-02-08T04:45:58.768Z,100797.01
2019-02-08T04:48:25.931Z,100800.45
2019-02-08T04:50:53.082Z,100793.75
2019-02-08T04:53:22.130Z,100792.86
2019-02-08T04:55:49.321Z,100798.12
2019-02-08T04:58:16.971Z,100791.22
2019-02-08T05:00:44.159Z,100787.14
2019-02-08T05:03:11.336Z,100789.87
2019-02-08T05:05:38.432Z,100787.33
2019-02-08T05:08:05.704Z,100789.53
2019-02-08T05:10:33.452Z,100793.16
2019-02-08T05:13:00.629Z,100796.86
2019-02-08T05:15:28.002Z,100798.42
2019-02-08T05:17:55.340Z,100799.40
2019-02-08T05:20:23.957Z,100794.09
2019-02-08T05:22:51.044Z,100797.20
2019-02-08T05:25:18.279Z,100790.98
2019-02-08T05:27:45.356Z,100790.35
2019-02-08T05:30:18.340Z,100795.25
2019-02-08T05:32:45.520Z,100794.77
2019-02-08T05:35:12.765Z,100790.13
2019-02-08T05:37:39.996Z,100803.66
2019-02-08T05:40:08.030Z,100795.28
2019-02-08T05:42:35.173Z,100798.84
2019-02-08T05:45:02.614Z,100799.55
2019-02-08T05:47:29.895Z,100800.41
2019-02-08T05:49:57.063Z,100801.08
2019-02-08T05:52:24.280Z,100803.88
2019-02-08T05:54:54.368Z,100802.39
2019-02-08T05:57:20.523Z,100800.93
2019-02-08T05:59:47.722Z,100799.73
2019-02-08T06:02:15.415Z,100798.35
2019-02-08T06:04:43.564Z,100791.92
2019-02-08T06:07:10.811Z,100790.69
2019-02-08T06:09:38.154Z,100785.16
2019-02-08T06:12:05.485Z,100784.64
2019-02-08T06:14:32.671Z,100776.00
2019-02-08T06:16:59.843Z,100783.00
2019-02-08T06:19:27.253Z,100785.20
2019-02-08T06:21:54.537Z,100783.03
2019-02-08T06:24:21.698Z,100784.71
2019-02-08T06:26:48.894Z,100793.57
2019-02-08T06:29:16.100Z,100794.76
2019-02-08T06:31:43.545Z,100793.72
2019-02-08T06:34:11.297Z,100791.88
2019-02-08T06:36:38.504Z,100803.81
2019-02-08T06:39:08.005Z,100810.58
2019-02-08T06:41:35.227Z,100815.84
2019-02-08T06:44:02.581Z,100813.86
2019-02-08T06:46:29.686Z,100808.78
2019-02-08T06:48:57.098Z,100808.48
2019-02-08T06:51:24.188Z,100809.05
2019-02-08T06:53:51.262Z,100818.58
2019-02-08T06:56:36.529Z,100817.53
2019-02-08T06:59:17.807Z,100823.55
2019-02-08T07:02:19.705Z,100827.09
2019-02-08T07:05:04.914Z,100810.65
2019-02-08T07:07:38.541Z,100818.31
2019-02-08T07:10:24.272Z,100811.84
2019-02-08T07:13:13.883Z,100816.70
2019-02-08T07:15:57.625Z,100818.03
2019-02-08T07:18:56.844Z,100816.86
2019-02-08T07:21:34.141Z,100818.84
2019-02-08T07:24:15.745Z,100820.50
2019-02-08T07:27:05.306Z,100824.42
2019-02-08T07:30:01.058Z,100823.80
2019-02-08T07:32:44.276Z,100818.59
2019-02-08T07:35:29.765Z,100817.66
2019-02-08T07:38:21.964Z,100816.89
2019-02-08T07:41:27.282Z,100809.02
2019-02-08T07:44:15.108Z,100806.81
2019-02-08T07:47:03.944Z,100802.95
2019-02-08T07:50:07.642Z,100800.80
2019-02-08T07:52:45.760Z,100800.06
2019-02-08T07:55:36.640Z,100808.23
2019-02-08T07:58:26.515Z,100807.66
2019-02-08T08:01:01.004Z,100805.13
2019-02-08T08:03:48.580Z,100813.08
2019-02-08T08:06:23.145Z,100812.05
2019-02-08T08:09:15.579Z,100806.13
2019-02-08T08:11:55.556Z,100818.89
2019-02-08T08:14:35.581Z,100812.34
2019-02-08T08:17:17.053Z,100822.45
2019-02-08T08:19:59.511Z,100817.86
2019-02-08T08:22:35.476Z,100814.87
2019-02-08T08:25:13.579Z,100805.69
2019-02-08T08:27:58.800Z,100807.73
2019-02-08T08:30:47.925Z,100810.65
2019-02-08T08:33:25.498Z,100804.46
2019-02-08T08:36:20.784Z,100801.27
2019-02-08T08:39:11.380Z,100805.56
2019-02-08T08:42:41.509Z,100806.72
2019-02-08T08:45:34.967Z,100801.10
2019-02-08T08:48:51.624Z,100807.54
2019-02-08T08:52:02.684Z,100807.06
2019-02-08T08:55:10.399Z,100800.72
2019-02-08T08:58:25.295Z,100796.01
2019-02-08T09:01:41.893Z,100793.67
2019-02-08T09:04:41.837Z,100787.61
2019-02-08T09:08:00.004Z,100782.36
2019-02-08T09:11:10.653Z,100791.91
2019-02-08T09:14:09.701Z,100794.53
2019-02-08T09:17:01.778Z,100794.98
2019-02-08T09:19:57.013Z,100789.63
2019-02-08T09:22:54.699Z,100793.34
2019-02-08T09:25:33.927Z,100793.19
2019-02-08T09:28:26.239Z,100784.62
2019-02-08T09:31:20.241Z,100780.17
2019-02-08T09:34:36.944Z,100785.05
2019-02-08T09:37:36.163Z,100789.27
2019-02-08T09:40:34.397Z,100783.06
2019-02-08T09:43:44.339Z,100792.69
2019-02-08T09:46:57.858Z,100779.34
2019-02-08T09:50:06.516Z,100784.05
2019-02-08T09:53:03.938Z,100788.87
2019-02-08T09:56:03.038Z,100781.05
2019-02-08T09:59:17.782Z,100780.47
2019-02-08T10:02:32.451Z,100776.13
2019-02-08T10:05:35.607Z,100770.39
2019-02-08T10:08:56.567Z,100765.84
2019-02-08T10:12:10.052Z,100771.67
2019-02-08T10:15:05.376Z,100766.76
2019-02-08T10:18:08.823Z,100770.08
2019-02-08T10:21:25.835Z,100770.66
2019-02-08T10:24:37.607Z,100748.62
2019-02-08T10:27:52.497Z,100753.15
2019-02-08T10:30:57.034Z,100744.66
2019-02-08T10:34:19.086Z,100747.52
2019-02-08T10:37:15.236Z,100748.12
2019-02-08T10:40:20.415Z,100757.67
2019-02-08T10:43:29.609Z,100749.11
2019-02-08T10:46:26.188Z,100750.47
2019-02-08T10:49:30.949Z,100750.45
2019-02-08T10:52:42.022Z,100734.30
2019-02-08T10:55:41.472Z,100739.80
2019-02-08T10:58:58.235Z,100742.00
2019-02-08T11:02:04.252Z,100741.80
2019-02-08T11:05:23.689Z,100736.25
2019-02-08T11:08:27.571Z,100735.58
2019-02-08T11:11:29.056Z,100718.41
2019-02-08T11:14:49.904Z,100715.37
2019-02-08T11:18:12.173Z,100706.17
2019-02-08T11:20:39.259Z,100697.87
2019-02-08T11:23:06.732Z,100702.66
2019-02-08T11:25:34.048Z,100706.44
2019-02-08T11:28:01.181Z,100689.47
2019-02-08T11:30:28.432Z,100686.53
2019-02-08T11:32:55.514Z,100673.89
2019-02-08T11:35:23.118Z,100661.66
2019-02-08T11:37:50.320Z,100661.31
2019-02-08T11:40:21.501Z,100654.08
2019-02-08T11:42:48.657Z,100652.33
2019-02-08T11:45:16.513Z,100645.31
2019-02-08T11:47:43.615Z,100640.43
2019-02-08T11:50:14.051Z,100642.33
2019-02-08T11:52:41.359Z,100643.86
2019-02-08T11:55:09.057Z,100634.48
2019-02-08T11:57:36.394Z,100639.84
2019-02-08T12:00:05.960Z,100634.20
2019-02-08T12:02:40.214Z,100626.84
2019-02-08T12:05:02.205Z,100614.65
2019-02-08T12:07:29.390Z,100615.12
2019-02-08T12:09:56.530Z,100615.95
2019-02-08T12:12:23.703Z,100610.58
2019-02-08T12:14:50.904Z,100595.05
2019-02-08T12:17:18.141Z,100592.34
2019-02-08T12:19:45.564Z,100596.43
2019-02-08T12:22:12.734Z,100592.42
2019-02-08T12:24:40.204Z,100590.56
2019-02-08T12:27:07.361Z,100587.73
2019-02-08T12:29:34.857Z,100589.59
2019-02-08T12:32:02.489Z,100578.12
2019-02-08T12:34:30.183Z,100581.20
2019-02-08T12:36:57.338Z,100573.63
2019-02-08T12:39:24.634Z,100581.55
2019-02-08T12:41:51.811Z,100569.67
2019-02-08T12:44:19.027Z,100562.17
2019-02-08T12:46:46.270Z,100565.92
2019-02-08T12:49:13.458Z,100563.71
2019-02-08T12:51:40.894Z,100549.75
2019-02-08T12:54:08.106Z,100556.23
2019-02-08T12:56:35.459Z,100563.08
2019-02-08T12:59:02.679Z,100551.11
2019-02-08T13:01:37.381Z,100551.83
2019-02-08T13:03:58.943Z,100549.20
2019-02-08T13:06:26.108Z,100546.67
2019-02-08T13:08:53.305Z,100535.05
2019-02-08T13:11:20.452Z,100533.84
2019-02-08T13:13:47.649Z,100532.41
2019-02-08T13:16:14.834Z,100525.93
2019-02-08T13:18:42.274Z,100518.73
2019-02-08T13:21:09.556Z,100506.94
2019-02-08T13:23:37.067Z,100518.20
2019-02-08T13:26:04.273Z,100511.95
2019-02-08T13:28:31.467Z,100502.23
2019-02-08T13:30:58.652Z,100498.92
2019-02-08T13:33:25.818Z,100500.52
2019-02-08T13:35:52.877Z,100488.98
2019-02-08T13:38:20.005Z,100484.08
2019-02-08T13:40:47.176Z,100492.77
2019-02-08T13:43:14.673Z,100495.94
2019-02-08T13:45:41.913Z,100470.89
2019-02-08T13:48:09.384Z,100476.25
2019-02-08T13:50:36.485Z,100473.89
2019-02-08T13:53:03.879Z,100481.48
2019-02-08T13:55:31.229Z,100473.93
2019-02-08T13:57:58.717Z,100473.70
2019-02-08T14:00:28.772Z,100475.82
2019-02-08T14:02:55.970Z,100466.23
2019-02-08T14:05:23.156Z,100470.23
2019-02-08T14:07:50.541Z,100468.54
2019-02-08T14:10:18.173Z,100468.27
2019-02-08T14:12:45.369Z,100470.28
2019-02-08T14:15:12.750Z,100472.96
2019-02-08T14:17:39.815Z,100468.44
2019-02-08T14:20:09.282Z,100466.05
2019-02-08T14:22:36.457Z,100466.07
2019-02-08T14:25:05.430Z,100459.46
2019-02-08T14:27:32.622Z,100467.74
2019-02-08T14:29:59.813Z,100463.91
2019-02-08T14:32:27.063Z,100468.49
2019-02-08T14:34:54.238Z,100462.24
2019-02-08T14:37:22.293Z,100456.63
2019-02-08T14:39:49.475Z,100460.12
2019-02-08T14:42:16.648Z,100461.41
2019-02-08T14:44:43.870Z,100465.02
2019-02-08T14:47:11.013Z,100455.78
2019-02-08T14:49:38.229Z,100450.17
2019-02-08T14:52:05.489Z,100444.29
2019-02-08T14:54:32.986Z,100449.69
2019-02-08T14:57:00.205Z,100449.20
2019-02-08T14:59:27.704Z,100442.02
2019-02-08T15:01:54.847Z,100444.44
2019-02-08T15:04:22.015Z,100436.98
2019-02-08T15:06:49.122Z,100436.16
2019-02-08T15:09:16.307Z,100438.56
2019-02-08T15:11:43.491Z,100442.14
2019-02-08T15:14:10.736Z,100439.51
2019-02-08T15:16:37.909Z,100435.30
2019-02-08T15:19:05.076Z,100441.19
2019-02-08T15:21:32.247Z,100435.45
2019-02-08T15:23:59.635Z,100428.98
2019-02-08T15:26:26.810Z,100427.05
2019-02-08T15:28:54.290Z,100435.43
2019-02-08T15:31:21.764Z,100431.02
2019-02-08T15:33:48.929Z,100417.27
2019-02-08T15:36:16.128Z,100417.87
2019-02-08T15:38:43.319Z,100414.27
2019-02-08T15:41:10.705Z,100413.19
2019-02-08T15:43:37.819Z,100396.79
2019-02-08T15:46:05.475Z,100399.17
2019-02-08T15:48:32.806Z,100406.59
2019-02-08T15:50:59.993Z,100396.69
2019-02-08T15:53:27.361Z,100397.05
2019-02-08T15:56:01.459Z,100390.33
2019-02-08T15:58:28.634Z,100376.59
2019-02-08T16:00:55.859Z,100375.01
2019-02-08T16:03:23.346Z,100381.32
2019-02-08T16:05:50.444Z,100374.86
2019-02-08T16:08:17.599Z,100374.98
2019-02-08T16:10:44.908Z,100373.06
2019-02-08T16:13:12.066Z,100379.39
2019-02-08T16:15:39.574Z,100371.17
2019-02-08T16:18:06.960Z,100370.66
2019-02-08T16:20:34.056Z,100358.70
2019-02-08T16:23:01.240Z,100363.14
2019-02-08T16:25:29.166Z,100361.81
2019-02-08T16:27:56.464Z,100354.77
2019-02-08T16:30:25.288Z,100347.70
2019-02-08T16:32:52.496Z,100346.84
2019-02-08T16:35:20.227Z,100335.13
2019-02-08T16:37:47.556Z,100341.34
2019-02-08T16:40:17.165Z,100332.11
2019-02-08T16:42:44.702Z,100341.16
2019-02-08T16:45:15.678Z,100339.23
2019-02-08T16:47:42.973Z,100336.95
2019-02-08T16:50:12.548Z,100331.27
2019-02-08T16:52:40.657Z,100322.35
2019-02-08T16:55:08.934Z,100320.92
2019-02-08T16:57:36.385Z,100317.48
2019-02-08T17:00:09.030Z,100312.23
2019-02-08T17:02:36.207Z,100318.91
2019-02-08T17:05:04.256Z,100314.37
2019-02-08T17:07:31.454Z,100308.75
2019-02-08T17:09:58.640Z,100301.02
2019-02-08T17:12:25.712Z,100307.48
2019-02-08T17:14:53.256Z,100296.42
2019-02-08T17:17:20.311Z,100287.33
2019-02-08T17:19:47.487Z,100286.00
2019-02-08T17:22:14.705Z,100279.42
2019-02-08T17:24:42.145Z,100274.42
2019-02-08T17:27:09.408Z,100276.91
2019-02-08T17:29:36.633Z,100269.72
2019-02-08T17:32:03.870Z,100263.77
2019-02-08T17:34:31.028Z,100268.27
2019-02-08T17:36:58.305Z,100249.59
2019-02-08T17:39:25.505Z,100258.55
2019-02-08T17:41:52.941Z,100256.41
2019-02-08T17:44:20.177Z,100244.73
2019-02-08T17:46:47.983Z,100242.94
2019-02-08T17:49:15.163Z,100238.90
2019-02-08T17:51:42.381Z,100239.12
2019-02-08T17:54:09.737Z,100233.80
2019-02-08T17:56:36.935Z,100244.86
2019-02-08T17:59:04.076Z,100249.31
2019-02-08T18:01:31.243Z,100246.75
2019-02-08T18:03:58.431Z,100245.44
2019-02-08T18:06:25.637Z,100235.89
2019-02-08T18:08:52.807Z,100238.45
2019-02-08T18:11:19.973Z,100231.11
2019-02-08T18:13:47.215Z,100235.43
2019-02-08T18:16:14.391Z,100242.70
2019-02-08T18:18:41.853Z,100241.52
2019-02-08T18:21:10.130Z,100246.41
2019-02-08T18:23:37.327Z,100235.81
2019-02-08T18:26:04.522Z,100238.13
2019-02-08T18:28:31.777Z,100230.31
2019-02-08T18:30:58.954Z,100238.02
2019-02-08T18:33:26.121Z,100230.42
2019-02-08T18:35:53.248Z,100224.82
2019-02-08T18:38:20.464Z,100227.19
2019-02-08T18:40:47.571Z,100224.17
2019-02-08T18:43:15.150Z,100215.03
2019-02-08T18:45:42.354Z,100217.31
2019-02-08T18:48:10.108Z,100215.36
2019-02-08T18:50:39.479Z,100211.78
2019-02-08T18:53:06.689Z,100212.28
2019-02-08T18:55:34.178Z,100215.09
2019-02-08T18:58:01.406Z,100194.45
2019-02-08T19:00:30.757Z,100194.71
2019-02-08T19:02:58.014Z,100198.22
2019-02-08T19:05:25.224Z,100181.02
2019-02-08T19:07:52.437Z,100182.14
2019-02-08T19:10:19.680Z,100176.84
2019-02-08T19:12:46.938Z,100170.42
2019-02-08T19:15:15.569Z,100164.33
2019-02-08T19:17:43.072Z,100163.86
2019-02-08T19:20:12.715Z,100159.72
2019-02-08T19:22:39.819Z,100164.38
2019-02-08T19:25:10.723Z,100151.39
2019-02-08T19:27:38.271Z,100153.27
2019-02-08T19:30:07.801Z,100154.68
2019-02-08T19:32:34.990Z,100143.48
2019-02-08T19:35:02.183Z,100139.43
2019-02-08T19:37:29.523Z,100140.49
2019-02-08T19:39:56.685Z,100140.03
2019-02-08T19:42:23.937Z,100137.20
2019-02-08T19:44:51.093Z,100124.78
2019-02-08T19:47:18.579Z,100124.32
2019-02-08T19:49:45.961Z,100127.88
2019-02-08T19:52:13.461Z,100116.55
2019-02-08T19:54:40.703Z,100110.56
2019-02-08T19:57:08.276Z,100110.20
2019-02-08T19:59:35.458Z,100108.17
2019-02-08T20:02:02.969Z,100104.63
2019-02-08T20:04:30.053Z,100102.46
2019-02-08T20:06:57.275Z,100098.05
2019-02-08T20:09:24.341Z,100090.28
2019-02-08T20:11:51.568Z,100084.57
2019-02-08T20:14:18.836Z,100087.19
2019-02-08T20:16:46.030Z,100082.64
2019-02-08T20:19:13.234Z,100070.25
2019-02-08T20:21:40.467Z,100076.21
2019-02-08T20:24:07.686Z,100067.97
2019-02-08T20:26:35.032Z,100069.05
2019-02-08T20:29:02.537Z,100070.00
2019-02-08T20:31:29.883Z,100067.48
2019-02-08T20:33:57.118Z,100051.97
2019-02-08T20:36:24.328Z,100045.96
2019-02-08T20:38:51.804Z,100043.59
2019-02-08T20:41:19.009Z,100038.80
2019-02-08T20:43:46.178Z,100043.23
2019-02-08T20:46:13.305Z,100038.83
2019-02-08T20:48:40.490Z,100033.58
2019-02-08T20:51:07.696Z,100027.48
2019-02-08T20:53:35.062Z,100027.97
2019-02-08T20:56:02.572Z,100020.31
2019-02-08T20:58:30.163Z,100023.56
2019-02-08T21:00:57.504Z,100023.79
2019-02-08T21:03:25.013Z,100027.86
2019-02-08T21:05:52.523Z,100024.73
2019-02-08T21:08:20.252Z,100011.36
2019-02-08T21:10:47.614Z,100021.88
2019-02-08T21:13:15.303Z,100011.01
2019-02-08T21:15:42.993Z,100019.27
2019-02-08T21:18:11.178Z,100020.70
2019-02-08T21:20:38.912Z,100015.91
2019-02-08T21:23:07.235Z,100010.54
2019-02-08T21:25:34.628Z,100009.47
2019-02-08T21:28:01.707Z,100006.13
2019-02-08T21:30:28.910Z,100010.17
2019-02-08T21:32:56.354Z,100004.23
2019-02-08T21:35:23.717Z,99995.98
2019-02-08T21:37:50.926Z,99989.05
2019-02-08T21:40:20.420Z,99979.48
2019-02-08T21:42:47.792Z,99979.75
2019-02-08T21:45:18.572Z,99974.14
2019-02-08T21:47:45.659Z,99975.95
2019-02-08T21:50:14.792Z,99979.77
2019-02-08T21:52:41.988Z,99958.78
2019-02-08T21:55:09.938Z,99954.22
2019-02-08T21:57:37.479Z,99954.47
2019-02-08T22:00:19.198Z,99951.36
2019-02-08T22:02:48.169Z,99941.83
2019-02-08T22:05:15.470Z,99940.89
2019-02-08T22:07:42.989Z,99943.62
2019-02-08T22:10:10.470Z,99940.66
2019-02-08T22:12:37.972Z,99940.30
2019-02-08T22:15:07.890Z,99930.86
2019-02-08T22:17:35.079Z,99938.98
2019-02-08T22:20:03.643Z,99942.32
2019-02-08T22:22:30.970Z,99947.80
2019-02-08T22:24:58.031Z,99944.80
2019-02-08T22:27:25.223Z,99936.70
2019-02-08T22:29:52.440Z,99939.45
2019-02-08T22:32:19.602Z,99935.62
2019-02-08T22:34:46.848Z,99931.92
2019-02-08T22:37:14.052Z,99924.77
2019-02-08T22:39:41.223Z,99916.16
2019-02-08T22:42:08.447Z,99922.73
2019-02-08T22:44:35.904Z,99919.28
2019-02-08T22:47:03.080Z,99922.63
2019-02-08T22:49:30.269Z,99921.90
2019-02-08T22:51:57.496Z,99918.57
2019-02-08T22:54:24.655Z,99911.52
2019-02-08T22:56:51.822Z,99904.22
2019-02-08T22:59:22.125Z,99886.68
2019-02-08T23:01:49.617Z,99894.80
2019-02-08T23:04:17.552Z,99885.39
2019-02-08T23:06:45.235Z,99875.84
2019-02-08T23:09:22.946Z,99871.32
2019-02-08T23:11:50.432Z,99856.48
2019-02-08T23:14:17.602Z,99860.90
2019-02-08T23:16:44.751Z,99846.95
2019-02-08T23:19:11.926Z,99843.48
2019-02-08T23:21:39.123Z,99834.67
2019-02-08T23:24:06.303Z,99822.95
2019-02-08T23:26:33.628Z,99829.27
2019-02-08T23:29:00.818Z,99818.31
2019-02-08T23:31:27.986Z,99825.73
2019-02-08T23:33:55.465Z,99833.64
2019-02-08T23:36:22.925Z,99827.61
2019-02-08T23:38:50.095Z,99840.06
2019-02-08T23:41:17.363Z,99826.19
2019-02-08T23:43:44.397Z,99819.36
2019-02-08T23:46:11.595Z,99819.13
2019-02-08T23:48:38.695Z,99810.17
2019-02-08T23:51:05.962Z,99814.48
2019-02-08T23:53:33.171Z,99807.45
2019-02-08T23:56:00.344Z,99818.31
2019-02-08T23:58:27.510Z,99813.08
